Time;durP1;ratioP1;P1;durP2;ratioP2;P2;SDS_P1;SDS_P2;PMS_P1;PMS_P2;Temp;Humidity;BMP_temperature;BMP_pressure;BME280_temperature;BME280_humidity;BME280_pressure;Samples;Min_cycle;Max_cycle;Signal;HPM_P1;HPM_P2
2022/05/21 00:02:23;;;;;;;7.10;6.80;;;;;;;21.23;60.04;101397.59;5033455;28;20203;-61
2022/05/21 00:04:49;;;;;;;7.43;7.13;;;;;;;21.23;60.71;101395.69;5033176;28;20426;-60
2022/05/21 00:07:14;;;;;;;8.13;7.72;;;;;;;21.29;61.03;101381.34;5033186;28;20033;-62
2022/05/21 00:09:40;;;;;;;7.10;6.80;;;;;;;21.32;60.46;101386.44;5034440;28;20044;-59
2022/05/21 00:12:06;;;;;;;6.90;6.60;;;;;;;21.35;60.44;101385.25;5035414;28;20026;-61
2022/05/21 00:14:31;;;;;;;7.13;6.80;;;;;;;21.37;60.21;101387.81;5033121;28;20081;-60
2022/05/21 00:16:57;;;;;;;7.43;7.13;;;;;;;21.40;60.09;101377.38;5033117;28;20107;-61
2022/05/21 00:19:22;;;;;;;7.18;6.88;;;;;;;21.42;60.12;101379.91;5032873;28;20044;-61
2022/05/21 00:21:47;;;;;;;7.00;6.70;;;;;;;21.45;59.58;101379.56;5032967;28;20128;-61
2022/05/21 00:24:13;;;;;;;7.32;7.03;;;;;;;21.47;59.12;101364.66;5032747;28;20018;-61
2022/05/21 00:26:38;;;;;;;7.22;6.93;;;;;;;21.49;59.45;101359.00;5033057;28;20030;-60
2022/05/21 00:29:04;;;;;;;7.57;7.28;;;;;;;21.51;58.13;101367.91;5033094;28;20041;-61
2022/05/21 00:31:29;;;;;;;7.53;7.15;;;;;;;21.54;59.06;101373.03;5032589;28;20494;-60
2022/05/21 00:33:54;;;;;;;7.47;7.18;;;;;;;21.54;58.67;101379.34;5032820;28;20164;-60
2022/05/21 00:36:20;;;;;;;7.38;7.07;;;;;;;21.55;57.81;101370.09;5032857;28;20029;-61
2022/05/21 00:38:45;;;;;;;7.10;6.70;;;;;;;21.59;57.67;101373.31;5032586;28;20079;-61
2022/05/21 00:41:14;;;;;;;7.38;7.07;;;;;;;21.56;57.77;101370.97;5033658;28;20018;-59
2022/05/21 00:43:47;;;;;;;7.68;7.32;;;;;;;21.59;57.58;101367.84;5034310;28;20036;-61
2022/05/21 00:46:22;;;;;;;7.35;6.97;;;;;;;21.58;57.43;101364.28;5032633;28;20520;-61
2022/05/21 00:49:14;;;;;;;7.20;6.90;;;;;;;21.59;56.94;101359.66;5032602;28;20519;-60
2022/05/21 00:51:50;;;;;;;7.32;7.03;;;;;;;21.63;57.26;101350.88;5032507;28;20021;-61
2022/05/21 00:54:17;;;;;;;7.00;6.70;;;;;;;21.63;57.04;101342.69;5031204;28;20103;-61
2022/05/21 00:56:47;;;;;;;7.38;7.07;;;;;;;21.64;55.89;101335.31;5032467;28;20029;-61
2022/05/21 01:01:59;;;;;;;7.20;6.90;;;;;;;21.64;56.54;101335.31;5032794;28;20076;-61
2022/05/21 01:04:25;;;;;;;7.10;6.70;;;;;;;21.67;55.72;101334.97;5034026;28;20061;-61
2022/05/21 01:06:53;;;;;;;7.68;7.38;;;;;;;21.68;56.28;101344.91;5036601;28;20492;-61
2022/05/21 01:09:18;;;;;;;6.97;6.60;;;;;;;21.68;55.88;101346.78;5036705;28;20105;-61
2022/05/21 01:11:44;;;;;;;8.30;7.90;;;;;;;21.68;55.86;101352.25;5036383;28;20100;-61
2022/05/21 01:14:11;;;;;;;6.88;6.57;;;;;;;21.68;56.36;101335.84;5036946;28;20392;-61
2022/05/21 01:16:37;;;;;;;7.20;6.90;;;;;;;21.68;55.38;101336.69;5035024;28;20029;-61
2022/05/21 01:19:08;;;;;;;7.30;7.00;;;;;;;21.69;55.91;101337.53;5035060;28;20029;-60
2022/05/21 01:21:36;;;;;;;7.85;7.45;;;;;;;21.68;55.34;101336.69;5035989;28;20107;-61
2022/05/21 01:24:02;;;;;;;7.82;7.43;;;;;;;21.69;55.67;101338.38;5037170;28;20363;-61
2022/05/21 01:26:28;;;;;;;7.40;7.10;;;;;;;21.71;56.00;101330.84;5036284;28;20028;-60
2022/05/21 01:28:54;;;;;;;6.68;6.38;;;;;;;21.71;55.59;101319.03;5034854;28;20116;-62
2022/05/21 01:31:20;;;;;;;7.63;7.32;;;;;;;21.70;56.16;101320.94;5036322;28;20029;-61
2022/05/21 01:33:45;;;;;;;7.97;7.57;;;;;;;21.70;55.51;101318.19;5036053;28;20025;-60
2022/05/21 01:36:13;;;;;;;7.10;6.80;;;;;;;21.70;56.33;101311.88;5035982;28;20032;-61
2022/05/21 01:38:39;;;;;;;7.10;6.80;;;;;;;21.69;55.11;101316.50;5036060;28;20099;-60
2022/05/21 01:41:07;;;;;;;7.20;6.90;;;;;;;21.69;54.76;101311.03;5035917;28;20022;-60
2022/05/21 01:46:17;;;;;;;7.13;6.82;;;;;;;21.70;55.07;101311.88;5035776;28;20119;-61
2022/05/21 01:48:43;;;;;;;6.90;6.60;;;;;;;21.69;55.59;101313.75;5035798;28;20049;-61
2022/05/21 01:51:09;;;;;;;7.40;7.10;;;;;;;21.70;55.32;101310.00;5036124;28;20384;-60
2022/05/21 01:53:36;;;;;;;7.15;6.85;;;;;;;21.71;55.88;101308.94;5037791;28;20025;-61
2022/05/21 01:56:02;;;;;;;7.30;6.90;;;;;;;21.67;55.36;101318.56;5035656;28;20523;-61
2022/05/21 01:58:28;;;;;;;7.30;7.00;;;;;;;21.70;55.36;101314.59;5035552;28;20461;-61
2022/05/21 02:00:55;;;;;;;7.25;6.95;;;;;;;21.69;55.47;101312.91;5036096;28;20038;-60
2022/05/21 02:03:21;;;;;;;7.18;6.80;;;;;;;21.70;54.74;101312.72;5035456;28;20025;-61
2022/05/21 02:05:46;;;;;;;7.88;7.47;;;;;;;21.72;55.18;101316.13;5035576;28;20105;-63
2022/05/21 02:08:13;;;;;;;7.70;7.40;;;;;;;21.71;55.66;101319.91;5034159;28;20104;-61
2022/05/21 02:10:40;;;;;;;7.15;6.85;;;;;;;21.71;54.64;101313.56;5035341;28;20033;-61
2022/05/21 02:13:06;;;;;;;7.30;6.90;;;;;;;21.70;54.94;101320.09;5035349;28;20088;-62
2022/05/21 02:15:32;;;;;;;7.32;7.03;;;;;;;21.70;55.45;101323.66;5033858;28;20357;-61
2022/05/21 02:17:57;;;;;;;7.68;7.38;;;;;;;21.68;55.25;101317.53;5035415;28;20048;-60
2022/05/21 02:20:23;;;;;;;8.05;7.65;;;;;;;21.70;55.06;101318.19;5035067;28;20021;-61
2022/05/21 02:22:48;;;;;;;7.32;6.93;;;;;;;21.70;54.69;101326.41;5036462;28;20054;-61
2022/05/21 02:25:16;;;;;;;7.20;6.90;;;;;;;21.69;54.76;101327.44;5034982;28;20288;-61
2022/05/21 02:27:42;;;;;;;7.30;7.00;;;;;;;21.70;54.84;101329.16;5035010;28;20048;-61
2022/05/21 02:30:08;;;;;;;6.97;6.63;;;;;;;21.70;54.08;101328.28;5035179;28;20030;-61
2022/05/21 02:32:33;;;;;;;7.20;6.90;;;;;;;21.71;54.60;101322.63;5034788;28;20083;-61
2022/05/21 02:34:58;;;;;;;6.90;6.60;;;;;;;21.71;54.95;101322.63;5033637;28;20022;-61
2022/05/21 02:40:08;;;;;;;6.90;6.60;;;;;;;21.71;54.67;101319.03;5034944;28;20515;-61
2022/05/21 02:42:48;;;;;;;6.97;6.68;;;;;;;21.69;54.60;101311.03;5033356;28;20262;-61
2022/05/21 02:45:19;;;;;;;7.60;7.30;;;;;;;21.69;55.04;101310.19;5034641;28;20022;-61
2022/05/21 02:47:45;;;;;;;6.90;6.60;;;;;;;21.69;53.96;101304.69;5034678;28;20104;-61
2022/05/21 02:50:12;;;;;;;7.20;6.90;;;;;;;21.68;54.29;101306.59;5034689;28;20104;-61
2022/05/21 02:52:38;;;;;;;7.55;7.25;;;;;;;21.71;54.68;101300.75;5034549;28;20068;-61
2022/05/21 02:55:05;;;;;;;6.90;6.60;;;;;;;21.69;54.46;101304.69;5035092;28;20053;-60
2022/05/21 02:57:30;;;;;;;7.18;6.88;;;;;;;21.71;54.61;101291.69;5034364;28;20057;-61
2022/05/21 02:59:55;;;;;;;7.05;6.75;;;;;;;21.70;54.55;101296.31;5034491;28;20049;-61
2022/05/21 03:02:21;;;;;;;6.75;6.45;;;;;;;21.69;54.47;101294.59;5034363;28;20021;-61
2022/05/21 03:04:46;;;;;;;7.40;7.10;;;;;;;21.70;54.51;101296.31;5034281;28;20030;-61
2022/05/21 03:07:12;;;;;;;7.10;6.80;;;;;;;21.69;54.29;101300.06;5034465;28;20072;-61
2022/05/21 03:12:22;;;;;;;6.97;6.57;;;;;;;21.68;54.59;101298.38;5034314;28;20036;-61
2022/05/21 03:14:47;;;;;;;7.07;6.70;;;;;;;21.69;54.38;101294.59;5034217;28;20053;-61
2022/05/21 03:17:12;;;;;;;7.50;7.20;;;;;;;21.69;54.09;101291.88;5032885;28;20279;-61
2022/05/21 03:19:38;;;;;;;7.30;7.00;;;;;;;21.67;54.48;101291.19;5034129;28;20064;-61
2022/05/21 03:22:03;;;;;;;7.10;6.80;;;;;;;21.67;53.98;101290.31;5033908;28;20045;-61
2022/05/21 03:24:29;;;;;;;7.00;6.70;;;;;;;21.68;54.09;101292.91;5033732;28;20067;-59
2022/05/21 03:26:55;;;;;;;7.15;6.85;;;;;;;21.70;54.33;101289.97;5033500;28;20381;-61
2022/05/21 03:29:20;;;;;;;7.22;6.90;;;;;;;21.67;54.57;101280.25;5033872;28;20515;-61
2022/05/21 03:31:46;;;;;;;7.05;6.75;;;;;;;21.68;54.72;101275.63;5034009;28;20037;-59
2022/05/21 03:34:11;;;;;;;7.20;6.90;;;;;;;21.66;54.25;101273.06;5035685;28;20028;-61
2022/05/21 03:36:37;;;;;;;7.22;6.85;;;;;;;21.67;54.62;101280.25;5033657;28;20030;-61
2022/05/21 03:39:03;;;;;;;7.07;6.78;;;;;;;21.69;54.13;101277.34;5033764;28;20033;-60
2022/05/21 03:41:29;;;;;;;7.43;7.13;;;;;;;21.68;54.73;101275.63;5033504;28;20496;-61
2022/05/21 03:43:55;;;;;;;7.50;7.00;;;;;;;21.67;53.89;101274.78;5033624;28;20057;-61
2022/05/21 03:46:21;;;;;;;7.05;6.75;;;;;;;21.68;54.18;101281.09;5033459;28;20048;-61
2022/05/21 03:48:46;;;;;;;6.90;6.60;;;;;;;21.65;54.38;101276.81;5033464;28;20496;-62
2022/05/21 03:51:12;;;;;;;7.00;6.70;;;;;;;21.68;55.11;101275.63;5033531;28;20026;-61
2022/05/21 03:53:37;;;;;;;7.20;6.80;;;;;;;21.66;54.41;101272.19;5033336;28;20104;-62
2022/05/21 03:56:03;;;;;;;7.57;7.25;;;;;;;21.64;54.70;101269.66;5033426;28;20033;-61
2022/05/21 03:58:29;;;;;;;7.47;7.18;;;;;;;21.64;54.69;101269.66;5033155;28;20040;-62
2022/05/21 04:00:54;;;;;;;7.05;6.75;;;;;;;21.66;54.36;101266.72;5033377;28;20026;-61
2022/05/21 04:03:20;;;;;;;0.25;0.25;;;;;;;22.18;52.93;101272.31;5033204;28;20120;-61
2022/05/21 04:05:45;;;;;;;0.28;0.28;;;;;;;22.50;52.55;101271.09;5032048;28;20025;-60
2022/05/21 04:08:11;;;;;;;0.57;0.40;;;;;;;22.74;51.96;101272.72;5033250;28;20099;-61
2022/05/21 04:10:36;;;;;;;0.70;0.38;;;;;;;22.93;52.38;101274.03;5033328;28;20071;-61
2022/05/21 04:13:02;;;;;;;0.40;0.40;;;;;;;23.09;52.36;101266.44;5033491;28;20469;-61
2022/05/21 04:15:27;;;;;;;0.22;0.22;;;;;;;23.26;52.84;101266.22;5035372;28;20030;-61
2022/05/21 04:17:53;;;;;;;0.50;0.30;;;;;;;23.37;52.63;101255.59;5033482;28;20484;-60
2022/05/21 04:20:21;;;;;;;0.20;0.20;;;;;;;23.52;52.12;101255.53;5032934;28;20468;-61
2022/05/21 04:22:47;;;;;;;0.32;0.30;;;;;;;23.65;52.75;101244.69;5032754;28;20073;-61
2022/05/21 04:25:12;;;;;;;0.30;0.30;;;;;;;23.77;52.45;101241.44;5032845;28;20049;-61
2022/05/21 04:27:39;;;;;;;1.13;0.75;;;;;;;23.87;52.64;101236.47;5032832;28;20048;-61
2022/05/21 04:30:07;;;;;;;0.32;0.30;;;;;;;23.96;51.85;101235.25;5032905;28;20033;-61
2022/05/21 04:32:32;;;;;;;0.30;0.30;;;;;;;24.03;52.79;101224.34;5032675;28;20029;-61
2022/05/21 04:34:58;;;;;;;0.30;0.30;;;;;;;24.10;52.99;101226.06;5031411;28;20024;-62
2022/05/21 04:37:23;;;;;;;0.52;0.20;;;;;;;24.17;51.77;101229.72;5032590;28;20123;-61
2022/05/21 04:39:48;;;;;;;0.25;0.20;;;;;;;24.22;52.61;101229.97;5031850;28;20051;-62
2022/05/21 04:42:13;;;;;;;0.30;0.30;;;;;;;24.32;52.95;101226.03;5032659;28;20028;-61
2022/05/21 04:44:39;;;;;;;0.68;0.40;;;;;;;23.72;54.07;101224.72;5033199;28;20029;-60
2022/05/21 04:47:05;;;;;;;0.30;0.30;;;;;;;23.17;52.98;101224.34;5032802;28;20035;-61
2022/05/21 04:49:30;;;;;;;1.30;0.30;;;;;;;22.98;51.63;101220.31;5032473;28;20029;-61
2022/05/21 04:51:56;;;;;;;0.32;0.30;;;;;;;22.81;50.30;101221.56;5034503;28;20029;-61
2022/05/21 04:54:21;;;;;;;0.73;0.30;;;;;;;22.70;49.86;101216.59;5034448;28;20455;-61
2022/05/21 04:56:46;;;;;;;0.30;0.25;;;;;;;22.56;47.89;101214.72;5032717;28;20528;-61
2022/05/21 04:59:12;;;;;;;0.30;0.30;;;;;;;22.46;48.05;101214.97;5032614;28;20032;-62
2022/05/21 05:01:39;;;;;;;0.82;0.35;;;;;;;22.44;47.99;101201.47;5032410;28;20034;-62
2022/05/21 05:04:05;;;;;;;0.60;0.32;;;;;;;22.37;46.53;101205.19;5032376;28;20064;-61
2022/05/21 05:06:31;;;;;;;0.63;0.20;;;;;;;22.24;47.36;101211.31;5032636;28;20064;-61
2022/05/21 05:08:56;;;;;;;0.80;0.47;;;;;;;22.35;47.75;101213.59;5032573;28;20449;-62
2022/05/21 05:11:21;;;;;;;0.55;0.30;;;;;;;22.23;47.56;101206.88;5032211;28;20026;-62
2022/05/21 05:13:47;;;;;;;0.98;0.40;;;;;;;22.37;47.96;101207.91;5032407;28;20037;-61
2022/05/21 05:16:12;;;;;;;0.30;0.30;;;;;;;22.28;47.71;101207.16;5031110;28;20024;-62
2022/05/21 05:18:37;;;;;;;0.40;0.40;;;;;;;22.23;48.37;101209.59;5032340;28;20109;-61
2022/05/21 05:21:03;;;;;;;1.17;0.50;;;;;;;22.21;47.60;101204.31;5032353;28;20033;-61
2022/05/21 05:23:28;;;;;;;0.73;0.32;;;;;;;22.21;47.40;101211.69;5032036;28;20060;-61
2022/05/21 05:25:53;;;;;;;0.50;0.20;;;;;;;22.16;47.89;101214.13;5032227;28;20120;-61
2022/05/21 05:28:22;;;;;;;0.85;0.40;;;;;;;22.26;47.72;101208.38;5031143;28;20021;-62
2022/05/21 05:30:48;;;;;;;1.10;0.40;;;;;;;22.21;47.86;101219.91;5032252;28;20532;-62
2022/05/21 05:33:15;;;;;;;0.20;0.20;;;;;;;22.28;46.82;101211.78;5033638;28;20036;-62
2022/05/21 05:35:40;;;;;;;0.40;0.35;;;;;;;22.24;46.95;101197.63;5035427;28;20375;-61
2022/05/21 05:38:09;;;;;;;0.40;0.20;;;;;;;22.22;47.82;101199.69;5032412;28;20021;-61
2022/05/21 05:40:35;;;;;;;0.30;0.30;;;;;;;22.22;47.09;101205.16;5031956;28;20114;-61
2022/05/21 05:43:01;;;;;;;1.10;0.57;;;;;;;22.27;46.83;101199.97;5032159;28;20397;-61
2022/05/21 05:45:27;;;;;;;1.02;0.40;;;;;;;22.28;47.31;101195.34;5031863;28;20101;-61
2022/05/21 05:47:53;;;;;;;0.55;0.43;;;;;;;22.24;46.66;101192.13;5032035;28;20108;-61
2022/05/21 05:50:18;;;;;;;0.85;0.40;;;;;;;22.21;47.00;101192.53;5033585;28;20100;-63
2022/05/21 05:52:44;;;;;;;0.30;0.30;;;;;;;22.21;46.94;101198.00;5035772;28;20063;-62
2022/05/21 05:55:09;;;;;;;0.20;0.17;;;;;;;22.11;47.36;101189.19;5035785;28;20022;-61
2022/05/21 05:57:35;;;;;;;0.32;0.30;;;;;;;22.23;47.25;101193.19;5035539;28;20055;-61
2022/05/21 06:00:00;;;;;;;0.40;0.40;;;;;;;22.20;47.85;101201.78;5035630;28;20109;-61
2022/05/21 06:05:15;;;;;;;1.85;0.40;;;;;;;22.07;47.48;101193.34;5035735;28;20058;-62
2022/05/21 06:07:45;;;;;;;0.43;0.40;;;;;;;22.06;46.82;101194.41;5035773;28;20021;-61
2022/05/21 06:10:13;;;;;;;0.52;0.30;;;;;;;22.13;47.58;101193.44;5037262;28;20057;-62
2022/05/21 06:12:39;;;;;;;0.30;0.30;;;;;;;22.10;46.88;101190.25;5035319;28;20104;-61
2022/05/21 06:15:04;;;;;;;0.73;0.30;;;;;;;22.08;46.82;101195.06;5035229;28;20518;-61
2022/05/21 06:17:30;;;;;;;0.52;0.30;;;;;;;22.17;47.42;101191.16;5035186;28;20033;-61
2022/05/21 06:19:55;;;;;;;0.30;0.30;;;;;;;22.12;47.89;101190.91;5035571;28;20029;-62
2022/05/21 06:22:21;;;;;;;0.38;0.22;;;;;;;22.13;47.70;101187.97;5034924;28;20072;-62
2022/05/21 06:24:46;;;;;;;0.30;0.30;;;;;;;22.25;46.97;101184.78;5035061;28;20017;-61
2022/05/21 06:27:12;;;;;;;0.20;0.20;;;;;;;22.14;47.13;101186.06;5035180;28;20033;-62
2022/05/21 06:29:37;;;;;;;1.00;0.52;;;;;;;22.07;48.36;101179.66;5035093;28;20036;-61
2022/05/21 06:32:07;;;;;;;0.45;0.40;;;;;;;22.14;46.82;101184.19;5035078;28;20365;-61
2022/05/21 06:34:34;;;;;;;0.30;0.28;;;;;;;22.18;47.10;101187.41;5034892;28;20068;-62
2022/05/21 06:37:05;;;;;;;0.80;0.32;;;;;;;22.22;48.25;101180.53;5034819;28;20487;-61
2022/05/21 06:39:32;;;;;;;1.70;0.43;;;;;;;22.17;48.12;101182.97;5034763;28;20107;-61
2022/05/21 06:41:57;;;;;;;0.50;0.30;;;;;;;22.19;47.07;101176.28;5034921;28;20037;-61
2022/05/21 06:44:23;;;;;;;0.30;0.30;;;;;;;22.12;47.59;101166.25;5034906;28;20038;-62
2022/05/21 06:46:49;;;;;;;0.20;0.20;;;;;;;22.15;46.99;101174.09;5034782;28;20473;-61
2022/05/21 06:49:14;;;;;;;0.55;0.32;;;;;;;22.13;47.57;101170.69;5036350;28;20048;-61
2022/05/21 06:51:39;;;;;;;0.55;0.35;;;;;;;22.19;46.63;101175.44;5037881;28;20376;-61
2022/05/21 06:54:04;;;;;;;0.60;0.30;;;;;;;22.17;47.96;101174.75;5033388;28;20104;-61
2022/05/21 06:56:30;;;;;;;0.40;0.20;;;;;;;22.25;48.55;101169.19;5033123;28;20034;-61
2022/05/21 06:58:55;;;;;;;0.75;0.40;;;;;;;22.09;47.94;101172.09;5034600;28;20061;-61
2022/05/21 07:01:20;;;;;;;0.30;0.30;;;;;;;22.13;47.19;101170.69;5033691;28;20051;-61
2022/05/21 07:03:45;;;;;;;0.60;0.25;;;;;;;22.20;47.85;101166.16;5034469;28;20349;-60
2022/05/21 07:08:55;;;;;;;0.30;0.30;;;;;;;22.19;47.70;101159.00;5034451;28;20033;-61
2022/05/21 07:11:20;;;;;;;0.65;0.30;;;;;;;22.19;47.89;101148.91;5034443;28;20033;-61
2022/05/21 07:13:46;;;;;;;0.80;0.35;;;;;;;22.24;47.47;101159.28;5034308;28;20408;-62
2022/05/21 07:16:11;;;;;;;0.20;0.20;;;;;;;22.25;47.97;101155.50;5034360;28;20121;-61
2022/05/21 07:18:36;;;;;;;0.32;0.30;;;;;;;22.16;48.02;101148.41;5034067;28;20067;-61
2022/05/21 07:21:02;;;;;;;0.22;0.22;;;;;;;22.18;47.45;101151.81;5034719;28;20033;-62
2022/05/21 07:23:28;;;;;;;0.20;0.20;;;;;;;22.17;48.18;101150.09;5033805;28;20080;-61
2022/05/21 07:25:55;;;;;;;0.20;0.20;;;;;;;22.21;48.75;101145.97;5033941;28;20026;-61
2022/05/21 07:28:21;;;;;;;0.25;0.17;;;;;;;22.17;48.77;101141.88;5034105;28;20032;-62
2022/05/21 07:30:47;;;;;;;0.30;0.20;;;;;;;22.20;48.70;101136.06;5034112;28;20029;-61
2022/05/21 07:33:16;;;;;;;0.40;0.30;;;;;;;22.21;47.92;101140.47;5033914;28;20018;-63
2022/05/21 07:35:42;;;;;;;0.20;0.20;;;;;;;22.14;48.73;101134.06;5034378;28;20117;-61
2022/05/21 07:38:10;;;;;;;0.30;0.30;;;;;;;22.19;48.24;101137.09;5034170;28;20354;-61
2022/05/21 07:40:38;;;;;;;0.15;0.13;;;;;;;22.17;49.31;101125.44;5033646;28;20022;-60
2022/05/21 07:43:11;;;;;;;0.63;0.28;;;;;;;22.15;47.75;101141.22;5033702;28;20041;-61
2022/05/21 07:45:39;;;;;;;0.30;0.20;;;;;;;22.24;49.26;101125.56;5033458;28;20025;-62
2022/05/21 07:48:05;;;;;;;1.27;0.20;;;;;;;22.19;47.97;101126.13;5032558;28;20381;-61
2022/05/21 07:50:31;;;;;;;0.70;0.10;;;;;;;22.18;48.51;101125.28;5032133;28;20465;-62
2022/05/21 07:52:57;;;;;;;0.22;0.20;;;;;;;22.12;48.15;101119.69;5033665;28;20047;-62
2022/05/21 07:55:22;;;;;;;0.40;0.10;;;;;;;22.12;48.46;101117.81;5033543;28;20021;-62
2022/05/21 07:57:48;;;;;;;0.68;0.43;;;;;;;22.11;48.68;101118.00;5033454;28;20040;-61
2022/05/21 08:00:17;;;;;;;0.10;0.10;;;;;;;22.23;48.14;101121.13;5033619;28;20519;-61
2022/05/21 08:02:44;;;;;;;0.20;0.20;;;;;;;22.19;48.06;101121.50;5033300;28;20076;-62
2022/05/21 08:05:09;;;;;;;0.20;0.20;;;;;;;22.15;48.06;101124.78;5033291;28;20033;-61
2022/05/21 08:07:35;;;;;;;0.50;0.22;;;;;;;22.15;48.89;101119.31;5033032;28;20071;-61
2022/05/21 08:10:00;;;;;;;0.63;0.20;;;;;;;22.13;47.97;101126.88;5033233;28;20029;-61
2022/05/21 08:12:25;;;;;;;0.95;0.35;;;;;;;22.04;49.29;101128.00;5032819;28;20071;-62
2022/05/21 08:14:51;;;;;;;0.40;0.17;;;;;;;22.19;48.10;101124.25;5033113;28;20105;-61
2022/05/21 08:17:16;;;;;;;0.65;0.20;;;;;;;22.20;48.52;101131.41;5033069;28;20029;-62
2022/05/21 08:19:43;;;;;;;0.65;0.40;;;;;;;22.19;47.67;101126.13;5033138;28;20059;-61
2022/05/21 08:27:37;;;;;;;0.15;0.10;;;;;;;22.13;48.60;101119.50;5032809;28;20579;-62
2022/05/21 08:30:04;;;;;;;1.45;0.32;;;;;;;22.27;48.45;101128.75;5032908;28;20036;-61
2022/05/21 08:32:29;;;;;;;0.40;0.20;;;;;;;22.21;48.22;101130.38;5032750;28;20040;-61
2022/05/21 08:34:54;;;;;;;0.98;0.40;;;;;;;22.22;48.82;101125.75;5032828;28;20017;-62
2022/05/21 08:37:20;;;;;;;0.25;0.20;;;;;;;22.22;48.52;101131.22;5032571;28;20477;-62
2022/05/21 08:39:46;;;;;;;0.50;0.30;;;;;;;22.11;48.65;101129.81;5033021;28;20022;-61
2022/05/21 08:42:20;;;;;;;0.20;0.10;;;;;;;22.15;49.42;101124.78;5032855;28;20419;-62
2022/05/21 08:44:47;;;;;;;;;;;;;;;22.13;47.75;101116.78;5033098;28;20025;-61
2022/05/21 08:47:27;;;;;;;0.30;0.20;;;;;;;22.20;47.52;101127.84;5032649;28;19909;-62
2022/05/21 08:50:01;;;;;;;0.32;0.30;;;;;;;22.24;49.01;101112.72;5032612;28;20021;-61
2022/05/21 08:52:33;;;;;;;;;;;;;;;22.13;48.06;101122.25;5031585;28;20028;-61
2022/05/21 08:55:00;;;;;;;1.27;0.43;;;;;;;22.02;48.85;101124.59;5032717;28;20014;-61
2022/05/21 08:57:46;;;;;;;0.60;0.35;;;;;;;22.12;48.73;101122.44;5031093;28;20053;-62
2022/05/21 09:00:14;;;;;;;0.30;0.20;;;;;;;22.11;48.89;101123.47;5032579;28;20116;-61
2022/05/21 09:02:40;;;;;;;0.88;0.20;;;;;;;22.23;48.26;101121.13;5032382;28;20025;-61
2022/05/21 09:05:09;;;;;;;0.30;0.30;;;;;;;22.19;48.70;101120.66;5035279;28;20492;-61
2022/05/21 09:07:48;;;;;;;0.80;0.47;;;;;;;22.25;48.06;101128.09;5032242;28;20033;-61
2022/05/21 09:10:37;;;;;;;0.30;0.20;;;;;;;22.17;48.84;101125.44;5032460;28;20487;-61
2022/05/21 09:13:28;;;;;;;1.10;0.30;;;;;;;22.23;49.03;101123.88;5032426;28;20038;-61
2022/05/21 09:18:37;;;;;;;0.75;0.30;;;;;;;22.20;48.58;101119.63;5032514;28;20036;-61
2022/05/21 09:21:08;;;;;;;0.22;0.20;;;;;;;22.19;48.65;101121.50;5032302;28;20025;-61
2022/05/21 09:23:53;;;;;;;0.60;0.35;;;;;;;22.15;48.77;101120.16;5031961;28;20072;-61
2022/05/21 09:26:24;;;;;;;0.63;0.40;;;;;;;22.18;49.44;101113.50;5035333;28;20487;-62
2022/05/21 09:28:50;;;;;;;1.88;0.20;;;;;;;22.19;49.16;101117.91;5036104;28;20033;-61
2022/05/21 09:31:42;;;;;;;0.82;0.15;;;;;;;22.18;48.26;101118.97;5034842;28;20018;-61
2022/05/21 09:34:23;;;;;;;0.50;0.30;;;;;;;22.20;47.67;101115.00;5032146;28;20033;-61
2022/05/21 09:36:49;;;;;;;0.20;0.20;;;;;;;22.22;48.28;101109.31;5036090;28;20041;-61
2022/05/21 09:39:41;;;;;;;0.95;0.40;;;;;;;22.14;49.09;101114.88;5034716;28;20029;-61
2022/05/21 09:42:09;;;;;;;0.20;0.20;;;;;;;22.16;50.13;101110.06;5036035;28;20209;-61
2022/05/21 09:47:25;;;;;;;0.57;0.30;;;;;;;22.16;48.14;101107.31;5039314;28;20392;-61
2022/05/21 09:50:09;;;;;;;0.30;0.20;;;;;;;22.12;49.00;101111.50;5035889;28;20075;-62
2022/05/21 09:52:35;;;;;;;0.73;0.35;;;;;;;22.13;48.70;101105.81;5034488;28;20112;-61
2022/05/21 09:55:03;;;;;;;0.20;0.20;;;;;;;22.13;49.07;101110.44;5035768;28;20484;-61
2022/05/21 09:57:39;;;;;;;1.60;0.30;;;;;;;22.20;49.80;101100.44;5035576;28;20028;-61
2022/05/21 10:00:14;;;;;;;0.30;0.20;;;;;;;22.17;49.01;101106.28;5035663;28;20397;-61
2022/05/21 10:02:49;;;;;;;0.32;0.30;;;;;;;22.16;48.50;101104.59;5035608;28;20021;-62
2022/05/21 10:05:31;;;;;;;0.20;0.20;;;;;;;22.17;48.42;101100.81;5035402;28;20022;-63
2022/05/21 10:11:02;;;;;;;0.25;0.25;;;;;;;22.22;48.75;101109.31;5035491;28;20099;-62
2022/05/21 10:13:43;;;;;;;1.80;0.30;;;;;;;22.21;49.18;101111.22;5034109;28;20033;-61
2022/05/21 10:16:09;;;;;;;0.70;0.30;;;;;;;22.12;48.94;101106.00;5035415;28;20028;-61
2022/05/21 10:18:59;;;;;;;0.10;0.10;;;;;;;22.13;49.66;101102.22;5035217;28;20033;-62
2022/05/21 10:21:24;;;;;;;0.30;0.30;;;;;;;22.21;49.21;101113.94;5034502;28;20760;-62
2022/05/21 10:23:56;;;;;;;0.30;0.20;;;;;;;22.10;48.69;101111.69;5035273;28;20033;-62
2022/05/21 10:26:33;;;;;;;0.20;0.13;;;;;;;22.08;48.09;101112.91;5033691;28;20056;-62
2022/05/21 10:29:17;;;;;;;0.30;0.17;;;;;;;22.06;49.32;101115.00;5034074;28;20061;-62
2022/05/21 10:32:00;;;;;;;1.08;0.10;;;;;;;22.15;49.02;101113.84;5035105;28;20075;-61
2022/05/21 10:34:39;;;;;;;1.15;0.10;;;;;;;22.20;49.23;101119.63;5034869;28;20026;-62
2022/05/21 10:37:20;;;;;;;0.40;0.20;;;;;;;22.14;49.09;101112.16;5033595;28;20068;-61
2022/05/21 10:39:57;;;;;;;0.60;0.20;;;;;;;22.20;49.29;101117.72;5035113;28;20025;-62
2022/05/21 10:42:44;;;;;;;0.20;0.20;;;;;;;22.28;48.46;101119.50;5034971;28;20100;-62
2022/05/21 10:45:17;;;;;;;0.17;0.17;;;;;;;22.18;48.80;101127.19;5034800;28;20053;-62
2022/05/21 10:47:54;;;;;;;0.38;0.20;;;;;;;22.12;49.25;101127.91;5035046;28;20025;-62
2022/05/21 10:50:58;;;;;;;0.10;0.10;;;;;;;22.24;49.36;101140.09;5034666;28;20033;-62
2022/05/21 10:54:01;;;;;;;0.20;0.20;;;;;;;22.23;48.23;101137.56;5033239;28;20029;-61
2022/05/21 10:57:07;;;;;;;0.20;0.20;;;;;;;22.12;48.61;101141.59;5034489;28;20064;-61
2022/05/21 10:59:38;;;;;;;0.20;0.20;;;;;;;22.16;48.34;101148.41;4992543;28;20269;-62
2022/05/21 11:02:14;;;;;;;1.08;0.30;;;;;;;22.18;49.18;101149.09;4993565;28;20034;-61
2022/05/21 11:05:00;;;;;;;0.30;0.20;;;;;;;22.17;48.49;101155.56;4992632;28;20186;-62
2022/05/21 11:08:16;;;;;;;0.30;0.28;;;;;;;22.23;48.79;101154.84;4976294;28;20034;-62
2022/05/21 11:10:51;;;;;;;0.30;0.30;;;;;;;22.23;49.08;101143.88;4934635;29;20087;-61
2022/05/21 11:13:23;;;;;;;0.45;0.20;;;;;;;22.10;49.16;101160.13;4934591;29;20483;-62
2022/05/21 11:15:53;;;;;;;0.60;0.28;;;;;;;22.16;49.19;101159.34;4934634;29;20047;-61
2022/05/21 11:18:25;;;;;;;0.40;0.30;;;;;;;22.23;49.26;101159.47;4934658;29;20047;-61
2022/05/21 11:20:56;;;;;;;0.95;0.43;;;;;;;22.09;48.88;101150.22;4934461;29;20054;-62
2022/05/21 11:23:32;;;;;;;0.57;0.30;;;;;;;22.11;48.44;101150.88;4934147;29;20519;-61
2022/05/21 11:26:30;;;;;;;0.32;0.20;;;;;;;22.16;47.72;101148.41;4934353;29;20145;-62
2022/05/21 11:29:04;;;;;;;1.27;0.30;;;;;;;22.16;49.40;101153.88;4934423;29;20141;-61
2022/05/21 11:37:21;;;;;;;0.40;0.30;;;;;;;22.12;47.61;101163.50;4972608;28;20045;-62
2022/05/21 11:39:51;;;;;;;0.30;0.20;;;;;;;22.24;48.05;101162.00;4972574;28;20047;-63
2022/05/21 11:42:22;;;;;;;1.15;0.85;;;;;;;22.06;49.06;101167.00;4972492;28;20038;-61
2022/05/21 11:44:56;;;;;;;0.35;0.20;;;;;;;22.13;49.66;101162.47;4975344;28;20055;-62
2022/05/21 11:47:22;;;;;;;0.20;0.20;;;;;;;22.16;49.69;101164.81;5033207;28;20104;-62
2022/05/21 11:49:47;;;;;;;0.20;0.20;;;;;;;22.22;49.10;101164.09;5033586;28;20137;-62
2022/05/21 11:52:27;;;;;;;0.60;0.30;;;;;;;22.17;48.64;101161.06;5033538;28;20297;-62
2022/05/21 11:55:07;;;;;;;0.43;0.40;;;;;;;22.19;48.25;101167.22;5033498;28;20309;-61
2022/05/21 11:57:40;;;;;;;0.30;0.28;;;;;;;22.20;47.88;101156.06;5033278;28;20072;-61
2022/05/21 12:00:17;;;;;;;0.20;0.20;;;;;;;22.13;49.62;101170.69;5033455;28;20022;-61
2022/05/21 12:02:54;;;;;;;0.32;0.32;;;;;;;22.18;48.52;101171.00;5033387;28;20065;-61
2022/05/21 12:05:33;;;;;;;0.32;0.30;;;;;;;22.20;48.74;101179.88;5033143;28;20132;-61
2022/05/21 12:08:13;;;;;;;1.20;0.40;;;;;;;22.21;49.18;101181.56;5033332;28;20480;-61
2022/05/21 12:10:54;;;;;;;0.50;0.30;;;;;;;22.15;48.48;101185.88;5033131;28;20104;-61
2022/05/21 12:13:31;;;;;;;0.25;0.20;;;;;;;22.15;48.40;101190.50;5033284;28;20044;-59